Time;durP1;ratioP1;P1;durP2;ratioP2;P2;SDS_P1;SDS_P2;PMS_P1;PMS_P2;Temp;Humidity;BMP_temperature;BMP_pressure;BME280_temperature;BME280_humidity;BME280_pressure;Samples;Min_cycle;Max_cycle;Signal;HPM_P1;HPM_P2
2022/08/11 00:01:01;;;;;;;;;;;;;;;;;;;;;
2022/08/11 00:09:43;;;;;;;;;;;;;;;;;;;;;
2022/08/11 00:12:32;;;;;;;;;;;;;;;;;;;;;
2022/08/11 00:15:22;;;;;;;;;;;;;;;;;;6137468;23;19979;-87
2022/08/11 00:17:55;;;;;;;;;;;;;;;;;;6083249;23;19916;-87
2022/08/11 00:23:46;;;;;;;;;;;;;;;;;;5977205;24;19942;-86
2022/08/11 00:27:02;;;;;;;;;;;;;;;;;;5964385;23;19922;-87
2022/08/11 00:32:54;;;;;;;;;;;;;;;;;;;;;
2022/08/11 00:35:42;;;;;;;;;;;;;;;;;;5915416;24;19927;-86
2022/08/11 00:41:10;;;;;;;;;;;;;;;;;;5957073;23;20272;-87
2022/08/11 00:49:51;;;;;;;;;;;;;;;;;;6076288;23;19921;-86
2022/08/11 00:52:56;;;;;;;;;;;;;;;;;;;;;
2022/08/11 00:58:37;;;;;;;;;;;;;;;;;;6030000;23;19969;-86
2022/08/11 01:01:13;;;;;;;;;;;;;;;;;;5996644;23;19922;-86
2022/08/11 01:09:49;;;;;;;;;;;;;;;;;;6134752;23;19978;-86
2022/08/11 01:18:23;;;;;;;;;;;;;;;;;;6076438;23;19921;-87
2022/08/11 01:27:17;;;;;;;;;;;;;;;;;;;;;
2022/08/11 01:33:19;;;;;;;;;;;;;;;;;;5989731;23;19989;-86
2022/08/11 01:36:05;;;;;;;;;;;;;;;;;;6100889;23;20346;-86
2022/08/11 01:38:58;;;;;;;;;;;;;;;;;;6099555;23;19921;-86
2022/08/11 01:44:36;;;;;;;;;;;;;;;;;;6090761;23;20000;-86
2022/08/11 01:47:49;;;;;;;;;;;;;;;;;;6081997;23;19928;-86
2022/08/11 01:52:38;;;;;;;;;;;;;;;;;;6113098;23;19979;-86
2022/08/11 01:55:04;;;;;;;;;;;;;;;;;;6087769;23;20000;-86
2022/08/11 01:57:30;;;;;;;;;;;;;;;;;;6090847;23;19920;-86
2022/08/11 02:00:12;;;;;;;;;;;;;;;;;;6092023;23;19920;-86
2022/08/11 02:02:46;;;;;;;;;;;;;;;;;;6114953;23;19921;-86
2022/08/11 02:05:28;;;;;;;;;;;;;;;;;;;;;
2022/08/11 02:08:05;;;;;;;;;;;;;;;;;;6204875;23;19962;-86
2022/08/11 02:13:27;;;;;;;;;;;;;;;;;;6199771;23;20070;-86
2022/08/11 02:15:55;;;;;;;;;;;;;;;;;;6175582;23;20275;-86
2022/08/11 02:18:21;;;;;;;;;;;;;;;;;;6198916;23;19947;-86
2022/08/11 02:23:47;;;;;;;;;;;;;;;;;;6259566;22;19965;-86
2022/08/11 02:26:39;;;;;;;;;;;;;;;;;;6236302;22;19919;-86
2022/08/11 02:29:11;;;;;;;;;;;;;;;;;;6229983;22;19920;-85
2022/08/11 02:34:38;;;;;;;;;;;;;;;;;;6259483;22;19923;-86
2022/08/11 02:37:15;;;;;;;;;;;;;;;;;;6231422;22;19925;-86
2022/08/11 02:39:43;;;;;;;;;;;;;;;;;;6230471;22;20306;-86
2022/08/11 02:45:20;;;;;;;;;;;;;;;;;;6231448;22;19927;-86
2022/08/11 02:50:35;;;;;;;;;;;;;;;;;;6212366;22;19926;-86
2022/08/11 02:53:01;;;;;;;;;;;;;;;;;;6257156;22;19930;-86
2022/08/11 02:55:32;;;;;;;;;;;;;;;;;;6230598;22;20391;-86
2022/08/11 02:58:09;;;;;;;;;;;;;;;;;;;;;
2022/08/11 03:01:00;;;;;;;;;;;;;;;;;;;;;
2022/08/11 03:03:42;;;;;;;;;;;;;;;;;;6263555;22;20329;-86
2022/08/11 03:06:10;;;;;;;;;;;;;;;;;;6231548;22;19926;-86
2022/08/11 03:17:25;;;;;;;;;;;;;;;;;;6257841;22;19969;-86
2022/08/11 03:19:51;;;;;;;;;;;;;;;;;;6234016;22;19927;-86
2022/08/11 03:22:28;;;;;;;;;;;;;;;;;;6231887;22;19927;-86
2022/08/11 03:24:57;;;;;;;;;;;;;;;;;;6233212;22;19923;-86
2022/08/11 03:27:24;;;;;;;;;;;;;;;;;;6241981;22;19991;-86
2022/08/11 03:29:52;;;;;;;;;;;;;;;;;;6260151;22;19919;-86
2022/08/11 03:32:39;;;;;;;;;;;;;;;;;;6231656;22;20001;-86
2022/08/11 03:35:10;;;;;;;;;;;;;;;;;;6259209;22;19977;-86
2022/08/11 03:37:51;;;;;;;;;;;;;;;;;;6263746;22;19990;-86
2022/08/11 03:41:41;;;;;;;;;;;;;;;;;;6259480;22;20240;-86
2022/08/11 03:43:13;;;;;;;;;;;;;;;;;;;;;
2022/08/11 03:45:42;;;;;;;;;;;;;;;;;;6245347;22;19919;-86
2022/08/11 03:48:08;;;;;;;;;;;;;;;;;;6210860;22;19980;-86
2022/08/11 03:50:52;;;;;;;;;;;;;;;;;;6262713;22;19920;-86
2022/08/11 03:53:29;;;;;;;;;;;;;;;;;;6262623;22;19931;-86
2022/08/11 03:56:06;;;;;;;;;;;;;;;;;;6237848;22;19927;-86
2022/08/11 03:58:44;;;;;;;;;;;;;;;;;;6237276;22;20355;-86
2022/08/11 04:04:27;;;;;;;;;;;;;;;;;;;;;
2022/08/11 04:09:58;;;;;;;;;;;;;;;;;;6236153;22;20402;-87
2022/08/11 04:12:37;;;;;;;;;;;;;;;;;;6257074;22;19961;-86
2022/08/11 04:18:12;;;;;;;;;;;;;;;;;;6261545;22;19919;-86
2022/08/11 04:21:09;;;;;;;;;;;;;;;;;;6255035;22;19973;-86
2022/08/11 04:23:48;;;;;;;;;;;;;;;;;;;;;
2022/08/11 04:26:35;;;;;;;;;;;;;;;;;;6194612;23;19919;-86
2022/08/11 04:32:34;;;;;;;;;;;;;;;;;;;;;
2022/08/11 04:38:01;;;;;;;;;;;;;;;;;;6172032;23;19943;-86
2022/08/11 04:46:35;;;;;;;;;;;;;;;;;;6180625;22;19923;-83
2022/08/11 05:03:07;;;;;;;;;;;;;;;;;;6227771;23;19956;-86
2022/08/11 05:05:34;;;;;;;;;;;;;;;;;;6206335;22;19958;-85
2022/08/11 05:08:00;;;;;;;;;;;;;;;;;;6231292;22;19923;-86
2022/08/11 05:10:33;;;;;;;;;;;;;;;;;;6230402;22;20350;-85
2022/08/11 05:27:09;;;;;;;;;;;;;;;;;;6259521;22;20381;-86
2022/08/11 05:35:19;;;;;;;;;;;;;;;;;;6228347;22;20024;-85
2022/08/11 05:57:18;;;;;;;;;;;;;;;;;;6198542;23;19926;-84
2022/08/11 05:59:50;;;;;;;;;;;;;;;;;;6148863;23;20483;-85
2022/08/11 06:02:16;;;;;;;;;;;;;;;;;;6165879;23;19923;-83
2022/08/11 06:04:43;;;;;;;;;;;;;;;;;;6196827;23;19920;-85
2022/08/11 06:07:09;;;;;;;;;;;;;;;;;;6166560;23;20143;-85
2022/08/11 06:09:45;;;;;;;;;;;;;;;;;;6194240;23;19916;-83
2022/08/11 06:12:11;;;;;;;;;;;;;;;;;;6187069;23;20393;-85
2022/08/11 06:14:48;;;;;;;;;;;;;;;;;;6195437;23;19947;-85
2022/08/11 06:17:32;;;;;;;;;;;;;;;;;;6134294;23;20407;-86
2022/08/11 06:19:59;;;;;;;;;;;;;;;;;;6109025;23;19920;-83
2022/08/11 06:22:26;;;;;;;;;;;;;;;;;;6106594;23;20049;-85
2022/08/11 06:24:53;;;;;;;;;;;;;;;;;;6111987;23;19975;-85
2022/08/11 06:27:20;;;;;;;;;;;;;;;;;;6130565;23;19924;-85
2022/08/11 06:29:47;;;;;;;;;;;;;;;;;;6108764;23;19924;-83
2022/08/11 06:32:14;;;;;;;;;;;;;;;;;;6131039;23;19925;-86
2022/08/11 06:34:42;;;;;;;;;;;;;;;;;;6132180;23;19928;-87
2022/08/11 06:37:08;;;;;;;;;;;;;;;;;;6106379;23;19943;-88
2022/08/11 06:39:35;;;;;;;;;;;;;;;;;;6133056;23;20291;-86
2022/08/11 06:42:02;;;;;;;;;;;;;;;;;;6134488;23;19970;-85
2022/08/11 06:44:31;;;;;;;;;;;;;;;;;;6134943;23;19935;-86
2022/08/11 06:46:59;;;;;;;;;;;;;;;;;;6110452;23;19947;-84
2022/08/11 06:52:28;;;;;;;;;;;;;;;;;;6101864;23;19967;-85
2022/08/11 06:55:05;;;;;;;;;;;;;;;;;;6083626;23;20250;-84
2022/08/11 07:00:28;;;;;;;;;;;;;;;;;;6076412;23;19927;-86
2022/08/11 07:02:55;;;;;;;;;;;;;;;;;;6081303;23;20015;-84
2022/08/11 07:05:22;;;;;;;;;;;;;;;;;;6108102;23;19921;-83
2022/08/11 07:16:27;;;;;;;;;;;;;;;;;;6134025;23;20046;-87
2022/08/11 07:30:04;;;;;;;;;;;;;;;;;;6200562;23;19916;-88
2022/08/11 07:32:31;;;;;;;;;;;;;;;;;;6173082;23;20027;-88
2022/08/11 07:34:59;;;;;;;;;;;;;;;;;;6174719;23;19919;-89
2022/08/11 07:37:30;;;;;;;;;;;;;;;;;;6197826;23;19974;-88
2022/08/11 07:40:04;;;;;;;;;;;;;;;;;;6228872;22;19923;-89
2022/08/11 07:42:34;;;;;;;;;;;;;;;;;;6233664;22;19923;-89
2022/08/11 07:53:33;;;;;;;;;;;;;;;;;;6232526;22;19955;-89
2022/08/11 07:56:05;;;;;;;;;;;;;;;;;;6228873;22;20052;-88
2022/08/11 08:18:11;;;;;;;;;;;;;;;;;;6255226;22;19926;-83
2022/08/11 08:20:50;;;;;;;;;;;;;;;;;;6232307;22;20347;-84
2022/08/11 08:23:31;;;;;;;;;;;;;;;;;;6257513;22;19986;-83
2022/08/11 08:26:00;;;;;;;;;;;;;;;;;;6257702;22;20347;-84
2022/08/11 08:28:29;;;;;;;;;;;;;;;;;;6228291;22;19919;-83
2022/08/11 08:31:19;;;;;;;;;;;;;;;;;;6229221;22;20378;-84
2022/08/11 08:34:19;;;;;;;;;;;;;;;;;;6250328;22;19953;-84
2022/08/11 08:36:53;;;;;;;;;;;;;;;;;;6256530;22;19920;-83
2022/08/11 08:39:20;;;;;;;;;;;;;;;;;;6229063;22;19926;-84
2022/08/11 08:41:49;;;;;;;;;;;;;;;;;;6233679;22;19962;-83
2022/08/11 08:44:15;;;;;;;;;;;;;;;;;;6223797;22;20328;-83
2022/08/11 08:46:47;;;;;;;;;;;;;;;;;;6260457;22;20248;-83
2022/08/11 08:49:14;;;;;;;;;;;;;;;;;;6234084;22;20323;-84
2022/08/11 08:51:42;;;;;;;;;;;;;;;;;;6209916;22;20022;-84
2022/08/11 08:54:09;;;;;;;;;;;;;;;;;;6207037;22;19957;-85
2022/08/11 08:56:35;;;;;;;;;;;;;;;;;;6208739;22;19919;-84
2022/08/11 08:59:02;;;;;;;;;;;;;;;;;;6235167;22;20615;-85
2022/08/11 09:01:42;;;;;;;;;;;;;;;;;;6263166;22;20252;-85
2022/08/11 09:04:10;;;;;;;;;;;;;;;;;;6231592;22;19997;-85
2022/08/11 09:06:38;;;;;;;;;;;;;;;;;;6261495;22;19929;-84
2022/08/11 09:09:14;;;;;;;;;;;;;;;;;;6257456;22;19973;-83
2022/08/11 09:11:50;;;;;;;;;;;;;;;;;;6210374;22;19926;-85
2022/08/11 09:17:40;;;;;;;;;;;;;;;;;;6257413;22;20278;-83
2022/08/11 09:20:07;;;;;;;;;;;;;;;;;;6230721;22;20040;-83
2022/08/11 09:28:15;;;;;;;;;;;;;;;;;;6256406;22;19919;-82
2022/08/11 09:30:41;;;;;;;;;;;;;;;;;;6233810;22;19920;-83
2022/08/11 09:33:07;;;;;;;;;;;;;;;;;;6205244;22;19945;-82
2022/08/11 09:35:35;;;;;;;;;;;;;;;;;;6235773;22;20241;-82
2022/08/11 09:40:53;;;;;;;;;;;;;;;;;;6233988;22;20283;-83
2022/08/11 09:46:13;;;;;;;;;;;;;;;;;;6258448;22;19966;-82
2022/08/11 09:48:39;;;;;;;;;;;;;;;;;;6235329;22;19927;-81
2022/08/11 09:51:07;;;;;;;;;;;;;;;;;;6263034;22;19994;-82
2022/08/11 09:53:37;;;;;;;;;;;;;;;;;;6236991;22;19998;-82
2022/08/11 09:58:12;;;;;;;;;;;;;;;;;;6233936;22;19990;-83
2022/08/11 09:59:00;;;;;;;;;;;;;;;;;;6236849;22;19923;-83
2022/08/11 10:01:28;;;;;;;;;;;;;;;;;;6206527;22;19915;-83
2022/08/11 10:03:57;;;;;;;;;;;;;;;;;;6258636;22;19919;-84
2022/08/11 10:09:21;;;;;;;;;;;;;;;;;;6259487;22;20394;-82
2022/08/11 10:11:49;;;;;;;;;;;;;;;;;;6236922;22;19923;-84
2022/08/11 10:17:02;;;;;;;;;;;;;;;;;;6262350;22;19933;-83
2022/08/11 10:19:33;;;;;;;;;;;;;;;;;;6260504;22;19950;-83
2022/08/11 10:27:36;;;;;;;;;;;;;;;;;;6260051;22;19923;-83
2022/08/11 10:35:37;;;;;;;;;;;;;;;;;;6231870;22;19926;-84
2022/08/11 10:38:04;;;;;;;;;;;;;;;;;;6228439;22;19915;-84
2022/08/11 10:40:31;;;;;;;;;;;;;;;;;;6233155;22;20374;-84
2022/08/11 10:43:12;;;;;;;;;;;;;;;;;;6235308;22;19919;-84
2022/08/11 10:48:26;;;;;;;;;;;;;;;;;;6258451;22;19973;-84
2022/08/11 10:51:16;;;;;;;;;;;;;;;;;;6232202;22;19984;-84
2022/08/11 10:59:34;;;;;;;;;;;;;;;;;;6165862;23;19975;-83
2022/08/11 11:02:08;;;;;;;;;;;;;;;;;;6160634;23;20007;-83
2022/08/11 11:04:35;;;;;;;;;;;;;;;;;;6166551;23;19956;-83
2022/08/11 11:07:03;;;;;;;;;;;;;;;;;;6140525;23;19917;-84
2022/08/11 11:09:31;;;;;;;;;;;;;;;;;;6163688;23;19921;-83
2022/08/11 11:20:15;;;;;;;;;;;;;;;;;;6163223;23;19975;-84
2022/08/11 11:22:51;;;;;;;;;;;;;;;;;;6169410;23;19920;-84
2022/08/11 11:25:29;;;;;;;;;;;;;;;;;;6116648;23;19926;-84
2022/08/11 11:28:00;;;;;;;;;;;;;;;;;;6140264;23;20044;-84
2022/08/11 11:30:48;;;;;;;;;;;;;;;;;;6167927;23;19919;-83
2022/08/11 11:33:21;;;;;;;;;;;;;;;;;;6137204;23;19924;-84
2022/08/11 11:36:08;;;;;;;;;;;;;;;;;;6079101;23;19917;-85
2022/08/11 11:38:35;;;;;;;;;;;;;;;;;;6148942;23;19951;-84
2022/08/11 11:43:46;;;;;;;;;;;;;;;;;;6193596;23;19923;-84
2022/08/11 11:46:12;;;;;;;;;;;;;;;;;;6192468;23;20630;-84
2022/08/11 11:48:39;;;;;;;;;;;;;;;;;;6105365;23;19925;-84
2022/08/11 11:51:05;;;;;;;;;;;;;;;;;;6098603;23;20403;-83
2022/08/11 11:53:31;;;;;;;;;;;;;;;;;;6102563;23;19935;-84
2022/08/11 11:55:57;;;;;;;;;;;;;;;;;;6103538;23;19962;-84
2022/08/11 12:01:19;;;;;;;;;;;;;;;;;;6101622;23;19971;-84
2022/08/11 12:03:47;;;;;;;;;;;;;;;;;;6082152;23;20479;-85
2022/08/11 12:06:19;;;;;;;;;;;;;;;;;;6111535;23;21463;-84
2022/08/11 12:08:46;;;;;;;;;;;;;;;;;;6083463;23;19920;-84
2022/08/11 12:14:04;;;;;;;;;;;;;;;;;;6104252;23;19943;-85
2022/08/11 12:16:32;;;;;;;;;;;;;;;;;;6083525;23;19925;-84
2022/08/11 12:18:58;;;;;;;;;;;;;;;;;;6128041;23;19920;-84
2022/08/11 12:21:25;;;;;;;;;;;;;;;;;;6227786;23;19919;-84
2022/08/11 12:29:30;;;;;;;;;;;;;;;;;;6200524;23;20280;-85
2022/08/11 12:31:59;;;;;;;;;;;;;;;;;;6202628;23;19920;-82
2022/08/11 12:34:29;;;;;;;;;;;;;;;;;;6230451;23;20422;-83
2022/08/11 12:37:12;;;;;;;;;;;;;;;;;;6224817;23;20009;-83
2022/08/11 12:45:28;;;;;;;;;;;;;;;;;;6173135;23;20055;-84
2022/08/11 12:53:39;;;;;;;;;;;;;;;;;;6196340;23;19931;-85
2022/08/11 12:58:51;;;;;;;;;;;;;;;;;;6174407;23;19927;-84
2022/08/11 13:06:56;;;;;;;;;;;;;;;;;;6172106;23;19987;-84
2022/08/11 13:09:24;;;;;;;;;;;;;;;;;;6166217;23;19920;-84
2022/08/11 13:14:39;;;;;;;;;;;;;;;;;;6169042;23;20476;-86
2022/08/11 13:17:21;;;;;;;;;;;;;;;;;;6145455;23;19919;-84
2022/08/11 13:19:52;;;;;;;;;;;;;;;;;;6195789;23;19924;-84
2022/08/11 13:22:19;;;;;;;;;;;;;;;;;;6168852;23;19920;-85
2022/08/11 13:24:49;;;;;;;;;;;;;;;;;;6173335;23;19919;-84
2022/08/11 13:27:15;;;;;;;;;;;;;;;;;;6168768;23;19970;-86
2022/08/11 13:29:45;;;;;;;;;;;;;;;;;;6171476;23;19995;-87
2022/08/11 13:32:21;;;;;;;;;;;;;;;;;;6194547;23;20686;-85
2022/08/11 13:34:48;;;;;;;;;;;;;;;;;;6199618;23;19916;-89
2022/08/11 13:37:14;;;;;;;;;;;;;;;;;;6166712;23;19927;-89
2022/08/11 13:39:46;;;;;;;;;;;;;;;;;;6168907;23;19930;-87
2022/08/11 13:42:12;;;;;;;;;;;;;;;;;;6189004;23;19956;-87
2022/08/11 13:44:38;;;;;;;;;;;;;;;;;;6170841;23;20183;-85
2022/08/11 13:47:15;;;;;;;;;;;;;;;;;;6166507;23;20015;-85
2022/08/11 13:49:42;;;;;;;;;;;;;;;;;;6195547;22;20451;-83
2022/08/11 13:52:11;;;;;;;;;;;;;;;;;;6234353;22;19923;-82
2022/08/11 13:54:37;;;;;;;;;;;;;;;;;;6170193;23;19987;-86
2022/08/11 13:57:05;;;;;;;;;;;;;;;;;;6140045;23;20926;-84
2022/08/11 13:59:41;;;;;;;;;;;;;;;;;;6168073;23;19962;-84
2022/08/11 14:02:10;;;;;;;;;;;;;;;;;;6137908;23;19955;-82
2022/08/11 14:04:40;;;;;;;;;;;;;;;;;;6165283;23;19920;-85
2022/08/11 14:07:06;;;;;;;;;;;;;;;;;;6137978;23;19920;-87
2022/08/11 14:09:44;;;;;;;;;;;;;;;;;;;;;
2022/08/11 14:15:11;;;;;;;;;;;;;;;;;;6140107;23;20014;-88
2022/08/11 14:17:39;;;;;;;;;;;;;;;;;;6115542;23;19920;-87
2022/08/11 14:20:07;;;;;;;;;;;;;;;;;;6116725;23;20126;-86
2022/08/11 14:22:33;;;;;;;;;;;;;;;;;;6117085;23;19917;-87
2022/08/11 14:25:02;;;;;;;;;;;;;;;;;;6137544;22;19919;-83
2022/08/11 14:27:31;;;;;;;;;;;;;;;;;;6259447;22;19923;-83
2022/08/11 14:29:58;;;;;;;;;;;;;;;;;;6210911;22;19922;-83
2022/08/11 14:32:37;;;;;;;;;;;;;;;;;;6260355;22;19924;-84
2022/08/11 14:35:03;;;;;;;;;;;;;;;;;;6232472;22;19975;-84
2022/08/11 14:37:31;;;;;;;;;;;;;;;;;;6207085;22;19923;-83
2022/08/11 14:39:59;;;;;;;;;;;;;;;;;;6230797;22;19994;-84
2022/08/11 14:48:01;;;;;;;;;;;;;;;;;;6228726;22;19927;-83
2022/08/11 14:50:43;;;;;;;;;;;;;;;;;;6135287;23;19916;-83
2022/08/11 14:53:14;;;;;;;;;;;;;;;;;;6133146;23;20326;-83
2022/08/11 14:58:24;;;;;;;;;;;;;;;;;;6107581;23;19921;-83
2022/08/11 15:00:50;;;;;;;;;;;;;;;;;;6087639;23;19924;-83
2022/08/11 15:03:16;;;;;;;;;;;;;;;;;;6084650;23;20286;-83
2022/08/11 15:05:43;;;;;;;;;;;;;;;;;;6087646;23;19927;-83
2022/08/11 15:08:09;;;;;;;;;;;;;;;;;;6108920;23;20376;-83
2022/08/11 15:10:35;;;;;;;;;;;;;;;;;;6089243;23;19960;-83
2022/08/11 15:13:01;;;;;;;;;;;;;;;;;;6088555;23;19920;-83
2022/08/11 15:18:14;;;;;;;;;;;;;;;;;;6105787;23;20346;-84
2022/08/11 15:26:12;;;;;;;;;;;;;;;;;;6106214;23;20330;-83
2022/08/11 15:39:21;;;;;;;;;;;;;;;;;;6228081;22;20893;-83
2022/08/11 15:47:17;;;;;;;;;;;;;;;;;;6231842;22;19976;-83
2022/08/11 15:49:43;;;;;;;;;;;;;;;;;;6236299;22;19949;-83
2022/08/11 15:52:09;;;;;;;;;;;;;;;;;;6205912;22;19929;-83
2022/08/11 15:54:35;;;;;;;;;;;;;;;;;;6208497;22;19922;-83
2022/08/11 16:04:10;;;;;;;;;;;;;;;;;;6231968;22;19919;-83
2022/08/11 16:05:20;;;;;;;;;;;;;;;;;;6231165;22;19919;-83
2022/08/11 16:07:47;;;;;;;;;;;;;;;;;;6209131;22;19922;-83
2022/08/11 16:10:18;;;;;;;;;;;;;;;;;;6204353;22;19926;-84
2022/08/11 16:18:13;;;;;;;;;;;;;;;;;;6232801;22;19919;-83
2022/08/11 16:20:39;;;;;;;;;;;;;;;;;;6210110;22;19923;-83
2022/08/11 16:23:05;;;;;;;;;;;;;;;;;;6207162;22;19926;-84
2022/08/11 16:25:31;;;;;;;;;;;;;;;;;;6205500;22;19919;-84
2022/08/11 16:28:07;;;;;;;;;;;;;;;;;;6209144;22;19926;-82
2022/08/11 16:30:33;;;;;;;;;;;;;;;;;;6233018;22;19926;-83
2022/08/11 16:32:59;;;;;;;;;;;;;;;;;;6209045;22;19919;-83
2022/08/11 16:40:57;;;;;;;;;;;;;;;;;;6234403;22;19915;-84
2022/08/11 16:48:52;;;;;;;;;;;;;;;;;;6233509;22;20002;-84
2022/08/11 16:51:19;;;;;;;;;;;;;;;;;;6229499;22;19919;-83
2022/08/11 16:53:45;;;;;;;;;;;;;;;;;;6234294;22;20009;-83
2022/08/11 16:56:15;;;;;;;;;;;;;;;;;;6205261;22;19926;-84
2022/08/11 17:01:26;;;;;;;;;;;;;;;;;;6231621;22;19922;-83
2022/08/11 17:14:53;;;;;;;;;;;;;;;;;;6234564;22;19922;-83
2022/08/11 17:17:18;;;;;;;;;;;;;;;;;;6228706;22;20339;-84
2022/08/11 17:19:44;;;;;;;;;;;;;;;;;;6211233;22;19919;-83
2022/08/11 17:24:55;;;;;;;;;;;;;;;;;;6235606;22;19965;-83
2022/08/11 17:27:21;;;;;;;;;;;;;;;;;;6206867;22;20500;-83
2022/08/11 17:29:47;;;;;;;;;;;;;;;;;;6210345;22;19919;-83
2022/08/11 17:37:43;;;;;;;;;;;;;;;;;;6235174;22;19919;-83
2022/08/11 17:40:10;;;;;;;;;;;;;;;;;;6203166;22;19919;-82
2022/08/11 17:48:27;;;;;;;;;;;;;;;;;;6229799;22;19923;-82
2022/08/11 17:50:53;;;;;;;;;;;;;;;;;;6206719;22;19994;-83
2022/08/11 18:01:34;;;;;;;;;;;;;;;;;;6230275;22;19915;-83
2022/08/11 18:04:01;;;;;;;;;;;;;;;;;;6209691;22;19923;-83
2022/08/11 18:06:28;;;;;;;;;;;;;;;;;;6208184;22;19922;-82
